createdAt,value
2023-04-01T00:02:02.237Z,99.90
2023-04-01T00:04:29.506Z,99.90
2023-04-01T00:06:56.819Z,99.90
2023-04-01T00:09:24.238Z,99.90
2023-04-01T00:11:51.544Z,99.90
2023-04-01T00:14:18.849Z,99.90
2023-04-01T00:16:46.234Z,99.90
2023-04-01T00:19:13.590Z,99.90
2023-04-01T00:21:41.207Z,99.90
2023-04-01T00:24:08.550Z,99.90
2023-04-01T00:26:35.955Z,99.90
2023-04-01T00:29:03.655Z,99.90
2023-04-01T00:31:31.166Z,99.90
2023-04-01T00:33:58.635Z,99.90
2023-04-01T00:36:26.091Z,99.90
2023-04-01T00:38:53.383Z,99.90
2023-04-01T00:41:22.260Z,99.90
2023-04-01T00:43:54.181Z,99.90
2023-04-01T00:46:21.564Z,99.90
2023-04-01T00:48:53.097Z,99.90
2023-04-01T00:51:24.762Z,99.90
2023-04-01T00:53:55.225Z,99.90
2023-04-01T00:56:33.570Z,99.90
2023-04-01T00:59:09.503Z,99.90
2023-04-01T01:01:37.195Z,99.90
2023-04-01T01:04:05.387Z,99.90
2023-04-01T01:06:41.641Z,99.90
2023-04-01T01:09:35.205Z,99.90
2023-04-01T01:12:14.064Z,99.90
2023-04-01T01:15:02.525Z,99.90
2023-04-01T01:17:41.783Z,99.90
2023-04-01T01:20:26.624Z,99.90
2023-04-01T01:23:32.491Z,99.90
2023-04-01T01:26:35.029Z,99.90
2023-04-01T01:29:25.500Z,99.90
2023-04-01T01:32:04.559Z,99.90
2023-04-01T01:34:46.136Z,99.90
2023-04-01T01:37:18.506Z,99.90
2023-04-01T01:39:53.903Z,99.90
2023-04-01T01:42:23.840Z,99.90
2023-04-01T01:44:53.219Z,99.90
2023-04-01T01:47:23.092Z,99.90
2023-04-01T01:49:52.097Z,99.90
2023-04-01T01:52:19.625Z,99.90
2023-04-01T01:54:52.659Z,99.90
2023-04-01T01:57:26.410Z,99.90
2023-04-01T02:00:02.028Z,99.90
2023-04-01T02:02:32.512Z,99.90
2023-04-01T02:05:00.836Z,99.90
2023-04-01T02:07:34.178Z,99.90
2023-04-01T02:10:02.188Z,99.90
2023-04-01T02:12:30.747Z,99.90
2023-04-01T02:15:10.868Z,99.90
2023-04-01T02:17:45.443Z,99.90
2023-04-01T02:20:18.613Z,99.90
2023-04-01T02:22:51.129Z,99.90
2023-04-01T02:25:29.011Z,99.90
2023-04-01T02:27:59.040Z,99.90
2023-04-01T02:30:29.631Z,99.90
2023-04-01T02:32:59.121Z,99.90
2023-04-01T02:35:27.289Z,99.90
2023-04-01T02:37:56.777Z,99.90
2023-04-01T02:40:24.252Z,99.90
2023-04-01T02:42:52.046Z,99.90
2023-04-01T02:45:19.681Z,99.90
2023-04-01T02:47:47.614Z,99.90
2023-04-01T02:50:14.916Z,99.90
2023-04-01T02:52:42.141Z,99.90
2023-04-01T02:55:09.978Z,99.90
2023-04-01T02:57:37.472Z,99.90
2023-04-01T03:00:05.293Z,99.90
2023-04-01T03:02:32.713Z,99.90
2023-04-01T03:05:00.473Z,99.90
2023-04-01T03:07:27.835Z,99.90
2023-04-01T03:09:55.365Z,99.90
2023-04-01T03:12:22.636Z,99.90
2023-04-01T03:14:52.426Z,99.90
2023-04-01T03:17:19.734Z,99.90
2023-04-01T03:19:47.217Z,99.90
2023-04-01T03:22:15.603Z,99.90
2023-04-01T03:24:43.880Z,99.90
2023-04-01T03:27:11.228Z,99.90
2023-04-01T03:29:38.944Z,99.90
2023-04-01T03:32:06.383Z,99.90
2023-04-01T03:34:33.909Z,99.90
2023-04-01T03:37:01.249Z,99.90
2023-04-01T03:39:28.658Z,99.90
2023-04-01T03:41:56.505Z,99.90
2023-04-01T03:44:23.975Z,99.90
2023-04-01T03:46:53.951Z,99.90
2023-04-01T03:49:21.194Z,99.90
2023-04-01T03:51:48.437Z,99.90
2023-04-01T03:54:16.103Z,99.90
2023-04-01T03:56:44.524Z,99.90
2023-04-01T03:59:13.056Z,99.90
2023-04-01T04:01:40.663Z,99.90
2023-04-01T04:04:08.357Z,99.90
2023-04-01T04:06:35.707Z,99.90
2023-04-01T04:09:03.199Z,99.90
2023-04-01T04:11:33.940Z,99.90
2023-04-01T04:14:01.887Z,99.90
2023-04-01T04:16:29.351Z,99.90
2023-04-01T04:19:00.750Z,99.90
2023-04-01T04:21:28.129Z,99.90
2023-04-01T04:23:55.584Z,99.90
2023-04-01T04:26:23.186Z,99.90
2023-04-01T04:28:58.648Z,99.90
2023-04-01T04:31:27.389Z,99.90
2023-04-01T04:33:57.102Z,99.90
2023-04-01T04:36:24.615Z,99.90
2023-04-01T04:38:53.274Z,99.90
2023-04-01T04:41:22.631Z,99.90
2023-04-01T04:43:53.988Z,99.90
2023-04-01T04:46:23.469Z,99.90
2023-04-01T04:48:55.542Z,99.90
2023-04-01T04:51:23.758Z,99.90
2023-04-01T04:53:52.890Z,99.90
2023-04-01T04:56:23.743Z,99.90
2023-04-01T04:59:23.627Z,99.90
2023-04-01T05:01:58.870Z,99.90
2023-04-01T05:04:26.198Z,99.90
2023-04-01T05:06:53.605Z,99.90
2023-04-01T05:09:21.273Z,99.90
2023-04-01T05:12:16.522Z,99.90
2023-04-01T05:15:05.767Z,99.90
2023-04-01T05:17:33.289Z,99.90
2023-04-01T05:20:01.203Z,99.90
2023-04-01T05:22:30.604Z,99.90
2023-04-01T05:24:58.070Z,99.90
2023-04-01T05:27:25.709Z,99.90
2023-04-01T05:29:52.977Z,99.90
2023-04-01T05:32:46.562Z,99.90
2023-04-01T05:35:14.066Z,99.90
2023-04-01T05:37:41.234Z,99.90
2023-04-01T05:40:09.315Z,99.90
2023-04-01T05:42:38.105Z,99.90
2023-04-01T05:45:06.581Z,99.90
2023-04-01T05:48:02.924Z,99.90
2023-04-01T05:50:36.282Z,99.90
2023-04-01T05:53:04.589Z,99.90
2023-04-01T05:55:32.222Z,99.90
2023-04-01T05:57:59.629Z,99.90
2023-04-01T06:00:28.458Z,99.90
2023-04-01T06:03:00.815Z,99.90
2023-04-01T06:05:41.184Z,99.90
2023-04-01T06:08:20.485Z,99.90
2023-04-01T06:11:18.252Z,99.90
2023-04-01T06:13:53.515Z,99.90
2023-04-01T06:16:35.326Z,99.90
2023-04-01T06:19:21.229Z,99.90
2023-04-01T06:21:49.202Z,99.90
2023-04-01T06:24:37.428Z,99.90
2023-04-01T06:27:13.398Z,99.90
2023-04-01T06:29:59.957Z,99.90
2023-04-01T06:32:49.977Z,99.90
2023-04-01T06:35:23.129Z,99.90
2023-04-01T06:38:19.848Z,99.90
2023-04-01T06:40:59.315Z,99.90
2023-04-01T06:43:51.135Z,99.90
2023-04-01T06:46:53.746Z,99.90
2023-04-01T06:50:09.928Z,99.90
2023-04-01T06:53:14.083Z,99.90
2023-04-01T06:56:13.884Z,99.90
2023-04-01T06:59:11.111Z,99.90
2023-04-01T07:01:45.301Z,99.90
2023-04-01T07:04:20.545Z,99.90
2023-04-01T07:06:54.541Z,99.90
2023-04-01T07:09:34.160Z,99.90
2023-04-01T07:12:33.322Z,99.90
2023-04-01T07:15:27.321Z,99.90
2023-04-01T07:18:15.299Z,99.90
2023-04-01T07:20:43.069Z,99.90
2023-04-01T07:23:33.896Z,99.90
2023-04-01T07:26:22.484Z,99.90
2023-04-01T07:29:14.338Z,99.90
2023-04-01T07:31:59.259Z,99.90
2023-04-01T07:34:47.307Z,99.90
2023-04-01T07:37:28.064Z,99.90
2023-04-01T07:40:07.126Z,99.90
2023-04-01T07:42:58.516Z,99.90
2023-04-01T07:45:37.554Z,99.90
2023-04-01T07:48:18.584Z,99.90
2023-04-01T07:51:12.822Z,99.90
2023-04-01T07:54:18.650Z,99.90
2023-04-01T07:56:59.611Z,99.90
2023-04-01T08:00:18.917Z,99.90
2023-04-01T08:02:58.106Z,99.90
2023-04-01T08:05:42.575Z,99.90
2023-04-01T08:08:42.733Z,99.90
2023-04-01T08:11:36.298Z,99.90
2023-04-01T08:14:55.850Z,99.90
2023-04-01T08:18:08.761Z,99.90
2023-04-01T08:20:43.783Z,99.90
2023-04-01T08:23:39.823Z,99.90
2023-04-01T08:26:37.229Z,99.90
2023-04-01T08:29:16.141Z,99.90
2023-04-01T08:32:12.108Z,99.90
2023-04-01T08:35:26.526Z,99.90
2023-04-01T08:37:57.330Z,99.90
2023-04-01T08:40:38.921Z,99.90
2023-04-01T08:43:24.815Z,99.90
2023-04-01T08:46:10.776Z,99.90
2023-04-01T08:48:41.384Z,99.90
2023-04-01T08:51:44.010Z,99.90
2023-04-01T08:54:23.585Z,99.90
2023-04-01T08:56:57.479Z,99.90
2023-04-01T08:59:41.090Z,99.90
2023-04-01T09:03:00.008Z,99.90
2023-04-01T09:05:44.456Z,99.90
2023-04-01T09:08:52.735Z,99.90
2023-04-01T09:11:55.169Z,99.90
2023-04-01T09:14:40.037Z,99.50
2023-04-01T09:17:38.877Z,99.20
2023-04-01T09:20:18.646Z,99.20
2023-04-01T09:23:05.826Z,99.00
2023-04-01T09:25:40.021Z,98.50
2023-04-01T09:28:34.370Z,99.40
2023-04-01T09:31:10.659Z,99.90
2023-04-01T09:34:00.294Z,99.90
2023-04-01T09:37:17.714Z,99.70
2023-04-01T09:39:47.974Z,99.90
2023-04-01T09:42:42.411Z,99.90
2023-04-01T09:45:28.992Z,99.60
2023-04-01T09:48:15.986Z,99.80
2023-04-01T09:51:09.663Z,99.30
2023-04-01T09:53:43.961Z,99.40
2023-04-01T09:56:14.665Z,99.40
2023-04-01T09:59:24.712Z,99.80
2023-04-01T10:02:27.455Z,99.90
2023-04-01T10:05:29.847Z,99.00
2023-04-01T10:08:12.742Z,99.20
2023-04-01T10:11:01.518Z,99.10
2023-04-01T10:14:04.317Z,98.10
2023-04-01T10:16:56.754Z,97.60
2023-04-01T10:19:24.006Z,98.70
2023-04-01T10:21:57.882Z,97.90
2023-04-01T10:24:25.674Z,96.80
2023-04-01T10:27:08.326Z,95.60
2023-04-01T10:29:59.870Z,94.00
2023-04-01T10:32:46.433Z,92.80
2023-04-01T10:35:22.826Z,92.60
2023-04-01T10:38:20.984Z,92.70
2023-04-01T10:41:04.840Z,93.40
2023-04-01T10:44:45.600Z,92.40
2023-04-01T10:47:38.749Z,92.80
2023-04-01T10:50:36.434Z,92.90
2023-04-01T10:53:46.912Z,93.30
2023-04-01T10:57:01.070Z,94.10
2023-04-01T11:00:09.343Z,94.00
2023-04-01T11:03:24.856Z,93.50
2023-04-01T11:06:26.829Z,93.80
2023-04-01T11:10:03.122Z,94.00
2023-04-01T11:12:59.936Z,93.90
2023-04-01T11:15:46.826Z,94.60
2023-04-01T11:18:32.621Z,94.30
2023-04-01T11:21:32.788Z,94.90
2023-04-01T11:24:15.392Z,94.30
2023-04-01T11:27:02.587Z,94.10
2023-04-01T11:30:00.617Z,93.50
2023-04-01T11:32:40.665Z,93.40
2023-04-01T11:35:26.496Z,92.80
2023-04-01T11:37:59.669Z,93.30
2023-04-01T11:41:05.862Z,92.00
2023-04-01T11:44:11.828Z,91.80
2023-04-01T11:47:08.893Z,90.90
2023-04-01T11:50:01.213Z,91.00
2023-04-01T11:53:19.860Z,90.00
2023-04-01T11:56:11.965Z,90.00
2023-04-01T11:59:03.853Z,89.60
2023-04-01T12:01:57.090Z,89.60
2023-04-01T12:04:55.725Z,90.10
2023-04-01T12:07:41.768Z,90.50
2023-04-01T12:10:46.512Z,90.40
2023-04-01T12:13:32.651Z,90.80
2023-04-01T12:16:12.702Z,91.60
2023-04-01T12:18:51.127Z,91.00
2023-04-01T12:21:39.449Z,90.80
2023-04-01T12:24:33.892Z,91.00
2023-04-01T12:27:12.064Z,90.10
2023-04-01T12:30:07.030Z,90.50
2023-04-01T12:33:04.352Z,90.90
2023-04-01T12:35:56.185Z,90.70
2023-04-01T12:38:48.504Z,87.80
2023-04-01T12:41:42.599Z,87.60
2023-04-01T12:44:50.671Z,87.50
2023-04-01T12:47:23.906Z,86.10
2023-04-01T12:50:09.089Z,86.90
2023-04-01T12:52:55.007Z,86.10
2023-04-01T12:55:51.707Z,84.40
2023-04-01T12:58:38.007Z,84.80
2023-04-01T13:01:28.157Z,84.70
2023-04-01T13:04:14.487Z,86.20
2023-04-01T13:06:53.926Z,86.50
2023-04-01T13:09:58.503Z,87.20
2023-04-01T13:12:33.211Z,86.20
2023-04-01T13:15:07.327Z,86.80
2023-04-01T13:17:53.643Z,86.60
2023-04-01T13:20:42.995Z,85.40
2023-04-01T13:23:34.330Z,85.90
2023-04-01T13:26:13.096Z,85.70
2023-04-01T13:29:06.479Z,85.60
2023-04-01T13:35:47.733Z,84.10
2023-04-01T13:38:32.502Z,83.30
2023-04-01T13:41:07.659Z,83.00
2023-04-01T13:43:40.740Z,82.80
2023-04-01T13:46:17.173Z,82.30
2023-04-01T13:48:59.913Z,82.80
2023-04-01T13:51:47.236Z,81.50
2023-04-01T13:54:43.062Z,82.10
2023-04-01T13:57:28.311Z,81.70
2023-04-01T14:00:24.483Z,81.50
2023-04-01T14:03:04.461Z,81.20
2023-04-01T14:05:56.473Z,80.80
2023-04-01T14:09:01.045Z,81.10
2023-04-01T14:12:00.823Z,80.70
2023-04-01T14:14:58.988Z,80.20
2023-04-01T14:17:39.618Z,80.10
2023-04-01T14:20:41.312Z,80.70
2023-04-01T14:23:38.109Z,80.70
2023-04-01T14:26:13.172Z,80.90
2023-04-01T14:28:51.039Z,81.20
2023-04-01T14:31:49.000Z,82.00
2023-04-01T14:34:25.242Z,80.40
2023-04-01T14:37:21.553Z,80.30
2023-04-01T14:39:48.840Z,80.10
2023-04-01T14:42:28.311Z,79.30
2023-04-01T14:45:17.133Z,78.90
2023-04-01T14:47:59.715Z,79.50
2023-04-01T14:50:56.424Z,80.00
2023-04-01T14:53:23.694Z,79.90
2023-04-01T14:56:03.650Z,80.00
2023-04-01T14:58:57.982Z,80.00
2023-04-01T15:01:33.200Z,79.40
2023-04-01T15:04:11.757Z,79.90
2023-04-01T15:07:01.574Z,79.80
2023-04-01T15:09:43.579Z,79.70
2023-04-01T15:12:45.425Z,80.00
2023-04-01T15:15:47.249Z,79.20
2023-04-01T15:18:44.090Z,78.70
2023-04-01T15:21:39.189Z,77.50
2023-04-01T15:25:01.938Z,78.10
2023-04-01T15:28:07.752Z,77.00
2023-04-01T15:30:45.762Z,76.70
2023-04-01T15:33:25.478Z,76.90
2023-04-01T15:36:11.545Z,77.10
2023-04-01T15:38:57.227Z,77.40
2023-04-01T15:41:38.878Z,75.90
2023-04-01T15:44:31.786Z,76.40
2023-04-01T15:46:59.645Z,76.50
2023-04-01T15:49:42.942Z,77.60
2023-04-01T15:52:25.329Z,76.60
2023-04-01T15:55:07.920Z,76.40
2023-04-01T15:57:56.768Z,75.30
2023-04-01T16:00:35.808Z,75.10
2023-04-01T16:03:23.148Z,75.90
2023-04-01T16:06:49.383Z,75.90
2023-04-01T16:09:48.117Z,74.80
2023-04-01T16:13:02.100Z,75.10
2023-04-01T16:15:48.136Z,74.00
2023-04-01T16:18:33.729Z,73.70
2023-04-01T16:21:22.811Z,73.10
2023-04-01T16:23:58.046Z,73.20
2023-04-01T16:26:44.116Z,73.60
2023-04-01T16:29:29.593Z,72.30
2023-04-01T16:32:20.058Z,72.60
2023-04-01T16:35:15.049Z,73.80
2023-04-01T16:37:54.202Z,71.50
2023-04-01T16:40:21.741Z,73.20
2023-04-01T16:43:05.749Z,72.30
2023-04-01T16:46:08.388Z,72.80
2023-04-01T16:48:55.845Z,70.70
2023-04-01T16:51:24.609Z,70.20
2023-04-01T16:54:07.761Z,69.30
2023-04-01T16:57:09.903Z,69.10
2023-04-01T16:59:43.097Z,71.80
2023-04-01T17:02:18.538Z,70.70
2023-04-01T17:05:01.207Z,72.00
2023-04-01T17:07:40.978Z,73.40
2023-04-01T17:10:17.313Z,74.20
2023-04-01T17:13:12.765Z,71.60
2023-04-01T17:15:47.123Z,72.50
2023-04-01T17:18:36.847Z,75.90
2023-04-01T17:21:22.975Z,77.50
2023-04-01T17:24:06.890Z,77.00
2023-04-01T17:26:59.008Z,77.60
2023-04-01T17:29:53.047Z,75.80
2023-04-01T17:33:21.605Z,75.60
2023-04-01T17:36:07.400Z,76.20
2023-04-01T17:39:01.717Z,78.40
2023-04-01T17:41:49.184Z,76.30
2023-04-01T17:44:50.375Z,76.60
2023-04-01T17:47:39.581Z,77.40
2023-04-01T17:50:29.368Z,78.00
2023-04-01T17:56:35.521Z,79.10
2023-04-01T17:59:41.548Z,79.90
2023-04-01T18:02:39.104Z,80.50
2023-04-01T18:05:34.894Z,80.90
2023-04-01T18:08:11.300Z,81.50
2023-04-01T18:11:01.378Z,82.00
2023-04-01T18:13:42.592Z,82.60
2023-04-01T18:16:19.135Z,83.00
2023-04-01T18:19:16.804Z,84.20
2023-04-01T18:21:48.680Z,83.40
2023-04-01T18:24:31.666Z,83.40
2023-04-01T18:27:21.954Z,83.70
2023-04-01T18:29:59.106Z,84.30
2023-04-01T18:32:56.919Z,84.80
2023-04-01T18:35:51.826Z,84.80
2023-04-01T18:38:49.865Z,84.80
2023-04-01T18:41:36.733Z,85.20
2023-04-01T18:44:36.706Z,85.70
2023-04-01T18:47:06.658Z,86.10
2023-04-01T18:49:56.112Z,86.80
2023-04-01T18:52:37.108Z,87.10
2023-04-01T18:55:04.483Z,87.60
2023-04-01T18:57:43.959Z,88.00
2023-04-01T19:00:40.058Z,88.90
2023-04-01T19:03:35.401Z,89.20
2023-04-01T19:06:20.829Z,89.30
2023-04-01T19:08:48.108Z,90.00
2023-04-01T19:11:40.056Z,90.20
2023-04-01T19:14:18.401Z,90.40
2023-04-01T19:17:06.946Z,90.80
2023-04-01T19:19:55.802Z,90.30
2023-04-01T19:22:41.413Z,90.40
2023-04-01T19:25:39.102Z,90.50
2023-04-01T19:28:27.480Z,90.90
2023-04-01T19:30:57.208Z,90.70
2023-04-01T19:34:05.957Z,90.80
2023-04-01T19:36:41.112Z,90.80
2023-04-01T19:39:25.506Z,90.70
2023-04-01T19:42:07.016Z,91.00
2023-04-01T19:44:52.683Z,91.10
2023-04-01T19:48:09.364Z,91.20
2023-04-01T19:50:50.763Z,91.10
2023-04-01T19:53:46.938Z,91.70
2023-04-01T19:56:24.672Z,91.80
2023-04-01T19:59:07.418Z,92.00
2023-04-01T20:02:09.844Z,91.40
2023-04-01T20:04:47.248Z,91.30
2023-04-01T20:07:30.344Z,91.00
2023-04-01T20:10:08.771Z,91.20
2023-04-01T20:12:49.049Z,91.10
2023-04-01T20:15:29.990Z,90.90
2023-04-01T20:18:01.059Z,91.00
2023-04-01T20:20:30.705Z,91.00
2023-04-01T20:23:19.618Z,90.90
2023-04-01T20:25:57.745Z,90.90
2023-04-01T20:29:05.363Z,91.00
2023-04-01T20:31:51.207Z,91.10
2023-04-01T20:34:57.938Z,91.50
2023-04-01T20:37:36.621Z,91.30
2023-04-01T20:40:32.114Z,91.30
2023-04-01T20:43:34.371Z,91.40
2023-04-01T20:46:05.576Z,91.60
2023-04-01T20:48:51.073Z,92.20
2023-04-01T20:51:25.669Z,92.50
2023-04-01T20:54:32.294Z,93.30
2023-04-01T20:57:07.264Z,94.40
2023-04-01T20:59:46.307Z,95.00
2023-04-01T21:02:39.595Z,96.20
2023-04-01T21:05:23.704Z,97.50
2023-04-01T21:08:19.827Z,98.80
2023-04-01T21:11:34.794Z,99.90
2023-04-01T21:14:10.548Z,99.90
2023-04-01T21:16:57.856Z,99.90
2023-04-01T21:19:43.681Z,99.90
2023-04-01T21:22:38.152Z,99.90
2023-04-01T21:25:36.588Z,99.90
2023-04-01T21:28:12.740Z,99.90
2023-04-01T21:31:09.308Z,99.90
2023-04-01T21:33:46.245Z,99.90
2023-04-01T21:36:32.097Z,99.90
2023-04-01T21:39:27.907Z,99.90
2023-04-01T21:42:12.423Z,99.90
2023-04-01T21:45:04.029Z,99.90
2023-04-01T21:48:18.798Z,99.90
2023-04-01T21:51:09.045Z,99.90
2023-04-01T21:53:43.433Z,99.90
2023-04-01T21:56:16.780Z,99.90
2023-04-01T21:59:08.360Z,99.90
2023-04-01T22:01:56.452Z,99.90
2023-04-01T22:04:54.122Z,99.90
2023-04-01T22:07:26.715Z,99.90
2023-04-01T22:09:59.556Z,99.90
2023-04-01T22:13:10.316Z,99.90
2023-04-01T22:15:56.729Z,99.90
2023-04-01T22:18:38.976Z,99.90
2023-04-01T22:21:22.493Z,99.90
2023-04-01T22:24:07.691Z,99.90
2023-04-01T22:26:48.359Z,99.90
2023-04-01T22:29:25.150Z,99.90
2023-04-01T22:32:17.935Z,99.90
2023-04-01T22:35:08.869Z,99.90
2023-04-01T22:38:02.539Z,99.90
2023-04-01T22:40:48.002Z,99.90
2023-04-01T22:43:27.082Z,99.90
2023-04-01T22:46:12.764Z,99.90
2023-04-01T22:48:57.770Z,99.90
2023-04-01T22:51:52.497Z,99.90
2023-04-01T22:54:27.154Z,99.90
2023-04-01T22:57:15.158Z,99.90
2023-04-01T22:59:59.955Z,99.90
2023-04-01T23:02:34.128Z,99.90
2023-04-01T23:05:05.627Z,99.90
2023-04-01T23:07:49.915Z,99.90
2023-04-01T23:10:30.507Z,99.90
2023-04-01T23:13:02.053Z,99.90
2023-04-01T23:15:30.582Z,99.90
2023-04-01T23:18:26.261Z,99.90
2023-04-01T23:21:30.055Z,99.90
2023-04-01T23:24:07.784Z,99.90
2023-04-01T23:26:53.650Z,99.90
2023-04-01T23:29:23.436Z,99.90
2023-04-01T23:32:01.583Z,99.90
2023-04-01T23:34:36.567Z,99.90
2023-04-01T23:37:12.843Z,99.90
2023-04-01T23:39:44.789Z,99.90
2023-04-01T23:42:31.819Z,99.90
2023-04-01T23:45:21.498Z,99.90
2023-04-01T23:47:52.752Z,99.90
2023-04-01T23:50:24.016Z,99.90
2023-04-01T23:53:18.917Z,99.90
2023-04-01T23:55:47.566Z,99.90
2023-04-01T23:58:27.371Z,99.90
